createdAt,value
2018-06-12T00:03:47.130Z,1.90
2018-06-12T00:08:41.668Z,1.73
2018-06-12T00:13:36.207Z,2.00
2018-06-12T00:18:30.813Z,1.80
2018-06-12T00:23:25.392Z,1.40
2018-06-12T00:28:20.768Z,1.50
2018-06-12T00:33:15.429Z,1.60
2018-06-12T00:38:10.036Z,1.73
2018-06-12T00:43:04.666Z,1.70
2018-06-12T00:48:00.294Z,1.50
2018-06-12T00:52:54.882Z,1.57
2018-06-12T00:57:49.479Z,1.60
2018-06-12T01:02:44.102Z,1.60
2018-06-12T01:07:38.723Z,1.80
2018-06-12T01:12:33.291Z,1.67
2018-06-12T01:17:27.893Z,1.40
2018-06-12T01:22:22.458Z,1.60
2018-06-12T01:27:17.347Z,1.60
2018-06-12T01:32:11.912Z,1.80
2018-06-12T01:37:06.542Z,1.70
2018-06-12T01:42:01.115Z,2.00
2018-06-12T01:46:55.745Z,1.70
2018-06-12T01:51:50.367Z,1.63
2018-06-12T01:56:45.691Z,1.70
2018-06-12T02:01:40.251Z,2.30
2018-06-12T02:06:34.810Z,2.63
2018-06-12T02:11:29.399Z,2.53
2018-06-12T02:16:23.959Z,3.10
2018-06-12T02:21:18.543Z,2.90
2018-06-12T02:26:13.083Z,3.40
2018-06-12T02:31:07.727Z,2.93
2018-06-12T02:36:02.358Z,3.50
2018-06-12T02:40:56.932Z,3.03
2018-06-12T02:45:51.505Z,3.37
2018-06-12T02:50:46.376Z,3.67
2018-06-12T02:55:40.920Z,3.50
2018-06-12T03:00:35.476Z,3.33
2018-06-12T03:05:30.095Z,3.57
2018-06-12T03:10:24.679Z,3.97
2018-06-12T03:15:19.256Z,3.30
2018-06-12T03:20:13.808Z,2.80
2018-06-12T03:25:08.402Z,3.20
2018-06-12T03:30:02.960Z,3.10
2018-06-12T03:34:57.542Z,2.70
2018-06-12T03:39:52.133Z,2.67
2018-06-12T03:44:46.986Z,2.50
2018-06-12T03:49:41.632Z,2.63
2018-06-12T03:54:36.498Z,2.33
2018-06-12T03:59:31.145Z,2.40
2018-06-12T04:04:25.712Z,2.70
2018-06-12T04:09:20.347Z,2.77
2018-06-12T04:14:14.911Z,3.10
2018-06-12T04:19:09.522Z,2.83
2018-06-12T04:24:04.237Z,2.87
2018-06-12T04:28:58.867Z,2.80
2018-06-12T04:33:53.447Z,2.30
2018-06-12T04:38:48.043Z,2.60
2018-06-12T04:43:42.558Z,2.70
2018-06-12T04:48:37.151Z,2.60
2018-06-12T04:53:32.030Z,2.63
2018-06-12T04:58:26.588Z,2.77
2018-06-12T05:03:21.182Z,2.57
2018-06-12T05:08:15.785Z,2.53
2018-06-12T05:13:10.417Z,2.83
2018-06-12T05:18:05.130Z,2.40
2018-06-12T05:22:59.760Z,2.47
2018-06-12T05:27:54.363Z,3.20
2018-06-12T05:32:48.920Z,2.73
2018-06-12T05:37:43.485Z,3.00
2018-06-12T05:42:38.246Z,3.33
2018-06-12T05:47:32.842Z,2.57
2018-06-12T05:52:27.470Z,2.73
2018-06-12T05:57:22.059Z,3.17
2018-06-12T06:02:16.720Z,3.37
2018-06-12T06:07:11.282Z,3.57
2018-06-12T06:12:05.978Z,3.00
2018-06-12T06:17:00.615Z,3.70
2018-06-12T06:21:55.188Z,3.17
2018-06-12T06:26:49.768Z,2.80
2018-06-12T06:31:44.344Z,2.70
2018-06-12T06:36:38.975Z,2.60
2018-06-12T06:41:33.226Z,2.10
2018-06-12T06:46:27.815Z,1.87
2018-06-12T06:51:22.381Z,2.10
2018-06-12T06:56:16.992Z,2.07
2018-06-12T07:01:11.541Z,1.93
2018-06-12T07:06:06.191Z,1.70
2018-06-12T07:11:00.771Z,1.67
2018-06-12T07:15:55.407Z,0.83
2018-06-12T07:21:52.786Z,1.00
2018-06-12T07:26:47.319Z,1.23
2018-06-12T07:31:42.163Z,0.90
2018-06-12T07:36:36.774Z,0.70
2018-06-12T07:41:32.214Z,0.63
2018-06-12T07:46:26.782Z,0.67
2018-06-12T07:51:21.374Z,0.70
2018-06-12T07:56:15.932Z,0.80
2018-06-12T08:01:10.446Z,1.10
2018-06-12T08:06:05.085Z,0.90
2018-06-12T08:10:59.623Z,0.73
2018-06-12T08:15:54.178Z,0.70
2018-06-12T08:20:48.743Z,0.70
2018-06-12T08:25:43.298Z,1.00
2018-06-12T08:30:37.919Z,1.20
2018-06-12T08:35:32.535Z,1.10
2018-06-12T08:40:27.124Z,1.15
2018-06-12T08:45:21.679Z,0.75
2018-06-12T08:50:16.575Z,1.05
2018-06-12T08:55:11.135Z,1.25
2018-06-12T09:00:05.830Z,1.30
2018-06-12T09:05:00.349Z,1.00
2018-06-12T09:09:54.942Z,1.20
2018-06-12T09:14:49.462Z,0.95
2018-06-12T09:19:44.043Z,0.95
2018-06-12T09:24:38.574Z,0.82
2018-06-12T09:29:33.220Z,1.10
2018-06-12T09:34:27.484Z,1.00
2018-06-12T09:39:22.059Z,1.12
2018-06-12T09:44:16.575Z,0.70
2018-06-12T09:49:12.839Z,1.00
2018-06-12T09:54:07.427Z,0.90
2018-06-12T09:59:01.988Z,0.85
2018-06-12T10:03:56.577Z,0.98
2018-06-12T10:08:51.143Z,0.90
2018-06-12T10:13:45.677Z,0.93
2018-06-12T10:18:40.277Z,1.30
2018-06-12T10:23:34.834Z,1.40
2018-06-12T10:28:29.432Z,1.40
2018-06-12T10:33:23.989Z,1.70
2018-06-12T10:38:18.510Z,2.02
2018-06-12T10:43:13.042Z,1.62
2018-06-12T10:48:07.653Z,1.85
2018-06-12T10:53:02.215Z,1.70
2018-06-12T10:57:57.765Z,1.70
2018-06-12T11:02:52.314Z,1.10
2018-06-12T11:07:46.870Z,1.00
2018-06-12T11:12:41.444Z,0.85
2018-06-12T11:17:36.067Z,0.80
2018-06-12T11:22:30.605Z,0.82
2018-06-12T11:27:25.217Z,0.80
2018-06-12T11:32:19.719Z,0.65
2018-06-12T11:37:14.279Z,0.57
2018-06-12T11:42:08.815Z,0.62
2018-06-12T11:47:03.430Z,0.93
2018-06-12T11:51:57.997Z,0.75
2018-06-12T11:56:52.562Z,1.12
2018-06-12T12:01:47.282Z,1.02
2018-06-12T12:06:41.807Z,1.17
2018-06-12T12:11:36.827Z,0.80
2018-06-12T12:16:31.400Z,0.60
2018-06-12T12:21:25.960Z,0.95
2018-06-12T12:26:21.071Z,0.85
2018-06-12T12:31:15.668Z,0.85
2018-06-12T12:36:10.223Z,0.78
2018-06-12T12:41:04.847Z,1.20
2018-06-12T12:45:59.401Z,1.20
2018-06-12T12:50:53.951Z,1.00
2018-06-12T12:55:48.510Z,1.17
2018-06-12T13:05:48.961Z,1.20
2018-06-12T13:10:43.537Z,1.02
2018-06-12T13:15:38.077Z,1.27
2018-06-12T13:20:32.307Z,0.78
2018-06-12T13:25:26.852Z,1.20
2018-06-12T13:30:21.862Z,0.88
2018-06-12T13:35:16.424Z,0.80
2018-06-12T13:40:11.094Z,1.22
2018-06-12T13:45:05.749Z,0.95
2018-06-12T13:50:02.184Z,1.12
2018-06-12T13:54:56.790Z,1.50
2018-06-12T13:59:51.382Z,0.70
2018-06-12T14:04:46.002Z,1.30
2018-06-12T14:09:41.028Z,1.00
2018-06-12T14:14:35.549Z,1.05
2018-06-12T14:19:30.154Z,1.10
2018-06-12T14:24:24.746Z,1.20
2018-06-12T14:29:19.330Z,1.00
2018-06-12T14:34:13.897Z,1.35
2018-06-12T14:39:09.818Z,1.10
2018-06-12T14:44:04.392Z,1.00
2018-06-12T14:48:58.938Z,0.88
2018-06-12T14:53:53.459Z,0.98
2018-06-12T14:58:48.046Z,1.00
2018-06-12T15:03:42.614Z,0.82
2018-06-12T15:08:37.188Z,0.80
2018-06-12T15:13:31.770Z,0.82
2018-06-12T15:18:26.363Z,0.70
2018-06-12T15:23:20.958Z,1.00
2018-06-12T15:28:15.584Z,1.00
2018-06-12T15:33:10.168Z,1.10
2018-06-12T15:38:04.731Z,0.70
2018-06-12T15:42:59.286Z,1.00
2018-06-12T15:47:53.862Z,0.75
2018-06-12T15:52:48.415Z,0.93
2018-06-12T15:57:42.988Z,0.70
2018-06-12T16:02:37.583Z,0.70
2018-06-12T16:07:32.163Z,0.80
2018-06-12T16:12:26.770Z,0.67
2018-06-12T16:17:21.350Z,1.10
2018-06-12T16:22:15.954Z,1.10
2018-06-12T16:27:10.614Z,1.30
2018-06-12T16:32:05.261Z,1.00
2018-06-12T16:36:59.899Z,1.37
2018-06-12T16:41:54.499Z,1.40
2018-06-12T16:46:49.051Z,1.30
2018-06-12T16:51:43.601Z,1.17
2018-06-12T16:56:38.237Z,0.97
2018-06-12T17:01:32.811Z,1.40
2018-06-12T17:06:27.398Z,1.10
2018-06-12T17:11:22.000Z,1.10
2018-06-12T17:16:16.614Z,1.00
2018-06-12T17:21:11.231Z,0.63
2018-06-12T17:26:05.910Z,0.80
2018-06-12T17:31:00.572Z,0.83
2018-06-12T17:35:55.299Z,1.20
2018-06-12T17:40:49.875Z,0.90
2018-06-12T17:45:44.543Z,1.17
2018-06-12T17:50:39.995Z,0.90
2018-06-12T17:55:35.067Z,1.20
2018-06-12T18:17:16.047Z,0.83
2018-06-12T18:27:24.728Z,0.90
2018-06-12T18:32:44.068Z,1.27
2018-06-12T18:38:00.124Z,1.10
2018-06-12T18:43:13.344Z,1.03
2018-06-12T18:48:34.683Z,1.17
2018-06-12T18:53:33.286Z,1.27
2018-06-12T18:58:28.632Z,1.40
2018-06-12T19:03:24.247Z,1.40
2018-06-12T19:08:29.594Z,2.07
2018-06-12T19:18:58.139Z,1.40
2018-06-12T19:24:12.462Z,1.10
2018-06-12T19:40:19.206Z,1.20
2018-06-12T19:45:14.287Z,1.70
2018-06-12T19:50:10.425Z,1.53
2018-06-12T19:55:24.798Z,1.20
2018-06-12T20:00:20.521Z,1.60
2018-06-12T20:05:19.357Z,1.40
2018-06-12T20:10:20.221Z,1.30
2018-06-12T20:16:59.350Z,1.37
2018-06-12T20:21:56.326Z,1.10
2018-06-12T20:26:51.396Z,0.87
2018-06-12T20:31:46.669Z,0.77
2018-06-12T20:36:41.871Z,0.83
2018-06-12T20:41:37.096Z,0.87
2018-06-12T20:46:32.355Z,0.90
2018-06-12T20:51:27.649Z,0.80
2018-06-12T20:56:22.667Z,1.10
2018-06-12T21:01:17.548Z,0.93
2018-06-12T21:06:12.707Z,0.67
2018-06-12T21:11:07.861Z,0.83
2018-06-12T21:16:03.065Z,1.00
2018-06-12T21:20:58.123Z,0.90
2018-06-12T21:25:53.979Z,0.90
2018-06-12T21:30:49.079Z,0.90
2018-06-12T21:36:35.267Z,1.10
2018-06-12T21:41:34.020Z,1.07
2018-06-12T21:46:31.065Z,1.17
2018-06-12T21:51:27.341Z,1.10
2018-06-12T21:56:22.491Z,0.87
2018-06-12T22:01:17.789Z,0.97
2018-06-12T22:06:13.665Z,1.00
2018-06-12T22:16:33.413Z,0.90
2018-06-12T22:21:30.760Z,0.90
2018-06-12T22:26:25.632Z,1.10
2018-06-12T23:03:51.126Z,1.10
2018-06-12T23:09:08.875Z,0.60
2018-06-12T23:14:04.823Z,1.00
2018-06-12T23:18:59.923Z,0.87
2018-06-12T23:24:10.512Z,0.73
2018-06-12T23:29:08.184Z,0.70
2018-06-12T23:34:03.306Z,0.53
2018-06-12T23:38:58.351Z,0.90
2018-06-12T23:43:53.449Z,1.20
2018-06-12T23:48:48.582Z,1.07
2018-06-12T23:59:00.560Z,0.80
